sensor_id;sensor_type;location;lat;lon;timestamp;P1;durP1;ratioP1;P2;durP2;ratioP2
22064;SDS011;11197;53.110;8.468;2023-04-24T00:00:10;4.85;;;3.20;;
22064;SDS011;11197;53.110;8.468;2023-04-24T00:02:41;5.53;;;2.90;;
22064;SDS011;11197;53.110;8.468;2023-04-24T00:05:10;5.68;;;3.20;;
22064;SDS011;11197;53.110;8.468;2023-04-24T00:07:35;3.40;;;2.63;;
22064;SDS011;11197;53.110;8.468;2023-04-24T00:10:01;4.60;;;2.80;;
22064;SDS011;11197;53.110;8.468;2023-04-24T00:12:27;4.80;;;2.70;;
22064;SDS011;11197;53.110;8.468;2023-04-24T00:14:53;3.28;;;2.47;;
22064;SDS011;11197;53.110;8.468;2023-04-24T00:17:19;4.55;;;2.40;;
22064;SDS011;11197;53.110;8.468;2023-04-24T00:19:46;4.05;;;2.65;;
22064;SDS011;11197;53.110;8.468;2023-04-24T00:22:12;3.33;;;2.83;;
22064;SDS011;11197;53.110;8.468;2023-04-24T00:24:44;3.60;;;2.63;;
22064;SDS011;11197;53.110;8.468;2023-04-24T00:27:10;3.95;;;2.90;;
22064;SDS011;11197;53.110;8.468;2023-04-24T00:29:36;3.28;;;2.63;;
22064;SDS011;11197;53.110;8.468;2023-04-24T00:32:02;4.90;;;2.03;;
22064;SDS011;11197;53.110;8.468;2023-04-24T00:34:27;2.95;;;1.90;;
22064;SDS011;11197;53.110;8.468;2023-04-24T00:36:53;2.13;;;1.60;;
22064;SDS011;11197;53.110;8.468;2023-04-24T00:39:20;2.70;;;1.45;;
22064;SDS011;11197;53.110;8.468;2023-04-24T00:41:46;2.28;;;1.10;;
22064;SDS011;11197;53.110;8.468;2023-04-24T00:44:13;1.05;;;0.82;;
22064;SDS011;11197;53.110;8.468;2023-04-24T00:46:40;1.52;;;0.88;;
22064;SDS011;11197;53.110;8.468;2023-04-24T00:49:06;1.50;;;0.90;;
22064;SDS011;11197;53.110;8.468;2023-04-24T00:51:32;1.88;;;0.80;;
22064;SDS011;11197;53.110;8.468;2023-04-24T00:53:58;1.02;;;0.85;;
22064;SDS011;11197;53.110;8.468;2023-04-24T00:56:25;2.05;;;0.90;;
22064;SDS011;11197;53.110;8.468;2023-04-24T00:58:52;1.25;;;0.90;;
22064;SDS011;11197;53.110;8.468;2023-04-24T01:01:18;1.20;;;1.10;;
22064;SDS011;11197;53.110;8.468;2023-04-24T01:03:46;1.50;;;1.10;;
22064;SDS011;11197;53.110;8.468;2023-04-24T01:06:12;1.50;;;1.20;;
22064;SDS011;11197;53.110;8.468;2023-04-24T01:08:39;2.63;;;1.30;;
22064;SDS011;11197;53.110;8.468;2023-04-24T01:11:06;2.22;;;1.60;;
22064;SDS011;11197;53.110;8.468;2023-04-24T01:13:33;2.90;;;1.48;;
22064;SDS011;11197;53.110;8.468;2023-04-24T01:15:59;2.00;;;1.50;;
22064;SDS011;11197;53.110;8.468;2023-04-24T01:18:26;3.45;;;1.88;;
22064;SDS011;11197;53.110;8.468;2023-04-24T01:20:53;2.53;;;2.05;;
22064;SDS011;11197;53.110;8.468;2023-04-24T01:23:22;2.92;;;2.10;;
22064;SDS011;11197;53.110;8.468;2023-04-24T01:25:50;2.78;;;2.33;;
22064;SDS011;11197;53.110;8.468;2023-04-24T01:28:17;2.53;;;2.22;;
22064;SDS011;11197;53.110;8.468;2023-04-24T01:30:43;2.90;;;2.60;;
22064;SDS011;11197;53.110;8.468;2023-04-24T01:33:09;4.50;;;2.47;;
22064;SDS011;11197;53.110;8.468;2023-04-24T01:35:36;3.65;;;2.47;;
22064;SDS011;11197;53.110;8.468;2023-04-24T01:38:02;2.85;;;2.58;;
22064;SDS011;11197;53.110;8.468;2023-04-24T01:40:29;3.35;;;2.10;;
22064;SDS011;11197;53.110;8.468;2023-04-24T01:42:57;2.63;;;2.33;;
22064;SDS011;11197;53.110;8.468;2023-04-24T01:45:23;2.92;;;2.40;;
22064;SDS011;11197;53.110;8.468;2023-04-24T01:47:49;3.15;;;2.55;;
22064;SDS011;11197;53.110;8.468;2023-04-24T01:50:16;4.13;;;2.80;;
22064;SDS011;11197;53.110;8.468;2023-04-24T01:52:42;4.03;;;2.45;;
22064;SDS011;11197;53.110;8.468;2023-04-24T01:55:09;4.72;;;2.50;;
22064;SDS011;11197;53.110;8.468;2023-04-24T01:57:35;3.72;;;2.83;;
22064;SDS011;11197;53.110;8.468;2023-04-24T02:00:01;4.03;;;2.50;;
22064;SDS011;11197;53.110;8.468;2023-04-24T02:02:41;3.13;;;2.83;;
22064;SDS011;11197;53.110;8.468;2023-04-24T02:05:07;2.83;;;2.50;;
22064;SDS011;11197;53.110;8.468;2023-04-24T02:07:37;5.60;;;2.80;;
22064;SDS011;11197;53.110;8.468;2023-04-24T02:10:03;4.13;;;2.88;;
22064;SDS011;11197;53.110;8.468;2023-04-24T02:12:30;3.75;;;2.80;;
22064;SDS011;11197;53.110;8.468;2023-04-24T02:14:56;3.92;;;3.00;;
22064;SDS011;11197;53.110;8.468;2023-04-24T02:17:22;3.42;;;2.90;;
22064;SDS011;11197;53.110;8.468;2023-04-24T02:19:48;3.33;;;2.80;;
22064;SDS011;11197;53.110;8.468;2023-04-24T02:22:15;3.22;;;2.60;;
22064;SDS011;11197;53.110;8.468;2023-04-24T02:24:41;3.95;;;3.00;;
22064;SDS011;11197;53.110;8.468;2023-04-24T02:27:07;3.17;;;2.88;;
22064;SDS011;11197;53.110;8.468;2023-04-24T02:29:36;3.55;;;2.80;;
22064;SDS011;11197;53.110;8.468;2023-04-24T02:32:02;4.55;;;3.10;;
22064;SDS011;11197;53.110;8.468;2023-04-24T02:34:30;4.07;;;2.90;;
22064;SDS011;11197;53.110;8.468;2023-04-24T02:39:24;4.85;;;2.90;;
22064;SDS011;11197;53.110;8.468;2023-04-24T02:41:51;3.65;;;2.80;;
22064;SDS011;11197;53.110;8.468;2023-04-24T02:44:17;3.22;;;2.72;;
22064;SDS011;11197;53.110;8.468;2023-04-24T02:46:43;4.15;;;3.17;;
22064;SDS011;11197;53.110;8.468;2023-04-24T02:49:08;5.78;;;3.88;;
22064;SDS011;11197;53.110;8.468;2023-04-24T02:51:34;4.00;;;3.40;;
22064;SDS011;11197;53.110;8.468;2023-04-24T02:54:03;4.68;;;4.20;;
22064;SDS011;11197;53.110;8.468;2023-04-24T02:56:29;4.30;;;3.90;;
22064;SDS011;11197;53.110;8.468;2023-04-24T02:58:57;4.95;;;4.45;;
22064;SDS011;11197;53.110;8.468;2023-04-24T03:01:22;5.75;;;4.93;;
22064;SDS011;11197;53.110;8.468;2023-04-24T03:03:48;6.22;;;5.43;;
22064;SDS011;11197;53.110;8.468;2023-04-24T03:06:14;6.57;;;5.55;;
22064;SDS011;11197;53.110;8.468;2023-04-24T03:08:40;7.05;;;5.57;;
22064;SDS011;11197;53.110;8.468;2023-04-24T03:11:06;6.45;;;5.85;;
22064;SDS011;11197;53.110;8.468;2023-04-24T03:13:32;6.82;;;5.43;;
22064;SDS011;11197;53.110;8.468;2023-04-24T03:15:57;7.97;;;6.28;;
22064;SDS011;11197;53.110;8.468;2023-04-24T03:18:26;6.20;;;5.60;;
22064;SDS011;11197;53.110;8.468;2023-04-24T03:20:52;7.78;;;6.10;;
22064;SDS011;11197;53.110;8.468;2023-04-24T03:23:18;7.53;;;6.20;;
22064;SDS011;11197;53.110;8.468;2023-04-24T03:25:44;6.47;;;5.72;;
22064;SDS011;11197;53.110;8.468;2023-04-24T03:28:12;6.70;;;6.00;;
22064;SDS011;11197;53.110;8.468;2023-04-24T03:30:41;6.43;;;5.82;;
22064;SDS011;11197;53.110;8.468;2023-04-24T03:33:08;5.75;;;5.15;;
22064;SDS011;11197;53.110;8.468;2023-04-24T03:35:39;5.95;;;5.40;;
22064;SDS011;11197;53.110;8.468;2023-04-24T03:38:09;6.22;;;5.32;;
22064;SDS011;11197;53.110;8.468;2023-04-24T03:40:58;6.18;;;5.40;;
22064;SDS011;11197;53.110;8.468;2023-04-24T03:43:47;5.93;;;5.32;;
22064;SDS011;11197;53.110;8.468;2023-04-24T03:46:14;6.32;;;5.70;;
22064;SDS011;11197;53.110;8.468;2023-04-24T03:48:45;6.70;;;5.25;;
22064;SDS011;11197;53.110;8.468;2023-04-24T03:51:14;6.40;;;5.57;;
22064;SDS011;11197;53.110;8.468;2023-04-24T03:53:43;6.83;;;5.67;;
22064;SDS011;11197;53.110;8.468;2023-04-24T03:56:11;5.85;;;5.10;;
22064;SDS011;11197;53.110;8.468;2023-04-24T03:58:39;6.43;;;5.40;;
22064;SDS011;11197;53.110;8.468;2023-04-24T04:01:08;6.03;;;5.43;;
22064;SDS011;11197;53.110;8.468;2023-04-24T04:03:38;6.60;;;5.45;;
22064;SDS011;11197;53.110;8.468;2023-04-24T04:06:05;6.57;;;5.50;;
22064;SDS011;11197;53.110;8.468;2023-04-24T04:08:31;9.02;;;6.05;;
22064;SDS011;11197;53.110;8.468;2023-04-24T04:10:57;7.53;;;6.10;;
22064;SDS011;11197;53.110;8.468;2023-04-24T04:13:23;7.30;;;5.75;;
22064;SDS011;11197;53.110;8.468;2023-04-24T04:15:49;7.18;;;6.28;;
22064;SDS011;11197;53.110;8.468;2023-04-24T04:18:15;7.00;;;6.30;;
22064;SDS011;11197;53.110;8.468;2023-04-24T04:20:41;7.35;;;6.05;;
22064;SDS011;11197;53.110;8.468;2023-04-24T04:23:08;6.70;;;6.00;;
22064;SDS011;11197;53.110;8.468;2023-04-24T04:25:57;8.30;;;5.70;;
22064;SDS011;11197;53.110;8.468;2023-04-24T04:28:32;6.97;;;6.25;;
22064;SDS011;11197;53.110;8.468;2023-04-24T04:30:58;8.02;;;7.13;;
22064;SDS011;11197;53.110;8.468;2023-04-24T04:33:24;7.80;;;6.32;;
22064;SDS011;11197;53.110;8.468;2023-04-24T04:35:51;7.40;;;6.60;;
22064;SDS011;11197;53.110;8.468;2023-04-24T04:38:18;9.27;;;6.53;;
22064;SDS011;11197;53.110;8.468;2023-04-24T04:40:53;7.82;;;6.60;;
22064;SDS011;11197;53.110;8.468;2023-04-24T04:43:24;7.82;;;6.40;;
22064;SDS011;11197;53.110;8.468;2023-04-24T04:45:52;7.70;;;6.13;;
22064;SDS011;11197;53.110;8.468;2023-04-24T04:48:45;8.38;;;6.03;;
22064;SDS011;11197;53.110;8.468;2023-04-24T04:51:12;8.52;;;6.03;;
22064;SDS011;11197;53.110;8.468;2023-04-24T04:53:38;7.22;;;6.07;;
22064;SDS011;11197;53.110;8.468;2023-04-24T04:56:05;6.88;;;5.90;;
22064;SDS011;11197;53.110;8.468;2023-04-24T04:58:43;7.47;;;6.22;;
22064;SDS011;11197;53.110;8.468;2023-04-24T05:01:13;6.82;;;5.50;;
22064;SDS011;11197;53.110;8.468;2023-04-24T05:03:41;6.70;;;5.30;;
22064;SDS011;11197;53.110;8.468;2023-04-24T05:06:10;8.27;;;5.60;;
22064;SDS011;11197;53.110;8.468;2023-04-24T05:08:38;7.45;;;5.65;;
22064;SDS011;11197;53.110;8.468;2023-04-24T05:11:10;8.48;;;5.75;;
22064;SDS011;11197;53.110;8.468;2023-04-24T05:13:37;6.68;;;5.20;;
22064;SDS011;11197;53.110;8.468;2023-04-24T05:16:06;7.28;;;5.50;;
22064;SDS011;11197;53.110;8.468;2023-04-24T05:18:33;7.00;;;5.38;;
22064;SDS011;11197;53.110;8.468;2023-04-24T05:20:59;7.30;;;5.50;;
22064;SDS011;11197;53.110;8.468;2023-04-24T05:23:27;6.88;;;5.68;;
22064;SDS011;11197;53.110;8.468;2023-04-24T05:25:54;7.35;;;5.72;;
22064;SDS011;11197;53.110;8.468;2023-04-24T05:28:20;6.80;;;5.45;;
22064;SDS011;11197;53.110;8.468;2023-04-24T05:30:57;6.90;;;5.05;;
22064;SDS011;11197;53.110;8.468;2023-04-24T05:33:24;8.35;;;5.38;;
22064;SDS011;11197;53.110;8.468;2023-04-24T05:35:50;8.48;;;5.35;;
22064;SDS011;11197;53.110;8.468;2023-04-24T05:38:16;7.97;;;5.43;;
22064;SDS011;11197;53.110;8.468;2023-04-24T05:40:44;8.18;;;5.40;;
22064;SDS011;11197;53.110;8.468;2023-04-24T05:43:11;7.13;;;5.40;;
22064;SDS011;11197;53.110;8.468;2023-04-24T05:45:38;9.98;;;6.03;;
22064;SDS011;11197;53.110;8.468;2023-04-24T05:48:05;7.75;;;5.95;;
22064;SDS011;11197;53.110;8.468;2023-04-24T05:50:31;7.70;;;5.55;;
22064;SDS011;11197;53.110;8.468;2023-04-24T05:53:00;8.63;;;5.60;;
22064;SDS011;11197;53.110;8.468;2023-04-24T05:55:34;9.23;;;5.78;;
22064;SDS011;11197;53.110;8.468;2023-04-24T05:58:01;7.60;;;5.70;;
22064;SDS011;11197;53.110;8.468;2023-04-24T06:00:27;6.82;;;5.35;;
22064;SDS011;11197;53.110;8.468;2023-04-24T06:03:00;9.43;;;6.10;;
22064;SDS011;11197;53.110;8.468;2023-04-24T06:05:29;7.20;;;6.07;;
22064;SDS011;11197;53.110;8.468;2023-04-24T06:07:55;9.60;;;6.43;;
22064;SDS011;11197;53.110;8.468;2023-04-24T06:10:24;9.80;;;6.60;;
22064;SDS011;11197;53.110;8.468;2023-04-24T06:12:51;12.38;;;6.18;;
22064;SDS011;11197;53.110;8.468;2023-04-24T06:15:18;8.65;;;6.15;;
22064;SDS011;11197;53.110;8.468;2023-04-24T06:17:58;9.40;;;6.25;;
22064;SDS011;11197;53.110;8.468;2023-04-24T06:20:25;9.57;;;6.10;;
22064;SDS011;11197;53.110;8.468;2023-04-24T06:22:51;8.63;;;6.28;;
22064;SDS011;11197;53.110;8.468;2023-04-24T06:25:17;8.77;;;6.15;;
22064;SDS011;11197;53.110;8.468;2023-04-24T06:27:45;9.80;;;6.72;;
22064;SDS011;11197;53.110;8.468;2023-04-24T06:30:12;10.77;;;6.97;;
22064;SDS011;11197;53.110;8.468;2023-04-24T06:32:39;9.38;;;6.50;;
22064;SDS011;11197;53.110;8.468;2023-04-24T06:35:05;9.80;;;7.18;;
22064;SDS011;11197;53.110;8.468;2023-04-24T06:37:35;8.48;;;7.22;;
22064;SDS011;11197;53.110;8.468;2023-04-24T06:40:01;11.82;;;7.25;;
22064;SDS011;11197;53.110;8.468;2023-04-24T06:42:31;11.98;;;7.30;;
22064;SDS011;11197;53.110;8.468;2023-04-24T06:44:57;11.35;;;7.68;;
22064;SDS011;11197;53.110;8.468;2023-04-24T06:47:23;9.98;;;7.43;;
22064;SDS011;11197;53.110;8.468;2023-04-24T06:49:49;10.40;;;7.20;;
22064;SDS011;11197;53.110;8.468;2023-04-24T06:52:16;13.05;;;7.85;;
22064;SDS011;11197;53.110;8.468;2023-04-24T06:54:41;10.68;;;8.02;;
22064;SDS011;11197;53.110;8.468;2023-04-24T06:57:08;10.48;;;7.82;;
22064;SDS011;11197;53.110;8.468;2023-04-24T06:59:34;10.52;;;8.13;;
22064;SDS011;11197;53.110;8.468;2023-04-24T07:02:00;11.73;;;8.10;;
22064;SDS011;11197;53.110;8.468;2023-04-24T07:04:26;11.85;;;7.97;;
22064;SDS011;11197;53.110;8.468;2023-04-24T07:06:51;12.45;;;8.57;;
22064;SDS011;11197;53.110;8.468;2023-04-24T07:09:21;9.70;;;7.57;;
22064;SDS011;11197;53.110;8.468;2023-04-24T07:11:49;10.07;;;7.70;;
22064;SDS011;11197;53.110;8.468;2023-04-24T07:14:15;10.23;;;7.93;;
22064;SDS011;11197;53.110;8.468;2023-04-24T07:16:41;10.95;;;8.50;;
22064;SDS011;11197;53.110;8.468;2023-04-24T07:19:07;13.38;;;9.00;;
22064;SDS011;11197;53.110;8.468;2023-04-24T07:21:33;12.10;;;9.13;;
22064;SDS011;11197;53.110;8.468;2023-04-24T07:23:59;12.77;;;9.20;;
22064;SDS011;11197;53.110;8.468;2023-04-24T07:26:25;12.27;;;8.73;;
22064;SDS011;11197;53.110;8.468;2023-04-24T07:28:54;11.68;;;8.18;;
22064;SDS011;11197;53.110;8.468;2023-04-24T07:31:20;12.88;;;8.80;;
22064;SDS011;11197;53.110;8.468;2023-04-24T07:33:46;11.65;;;8.38;;
22064;SDS011;11197;53.110;8.468;2023-04-24T07:36:12;10.85;;;7.78;;
22064;SDS011;11197;53.110;8.468;2023-04-24T07:38:42;11.57;;;7.95;;
22064;SDS011;11197;53.110;8.468;2023-04-24T07:41:08;9.30;;;7.57;;
22064;SDS011;11197;53.110;8.468;2023-04-24T07:43:34;11.63;;;7.78;;
22064;SDS011;11197;53.110;8.468;2023-04-24T07:46:00;8.98;;;7.50;;
22064;SDS011;11197;53.110;8.468;2023-04-24T07:48:26;10.98;;;7.32;;
22064;SDS011;11197;53.110;8.468;2023-04-24T07:50:52;9.05;;;7.25;;
22064;SDS011;11197;53.110;8.468;2023-04-24T07:53:19;9.25;;;7.20;;
22064;SDS011;11197;53.110;8.468;2023-04-24T07:55:45;11.20;;;6.95;;
22064;SDS011;11197;53.110;8.468;2023-04-24T07:58:11;9.88;;;7.28;;
22064;SDS011;11197;53.110;8.468;2023-04-24T08:00:37;8.90;;;6.45;;
22064;SDS011;11197;53.110;8.468;2023-04-24T08:03:03;11.27;;;7.20;;
22064;SDS011;11197;53.110;8.468;2023-04-24T08:05:28;9.57;;;6.82;;
22064;SDS011;11197;53.110;8.468;2023-04-24T08:07:55;8.57;;;6.65;;
22064;SDS011;11197;53.110;8.468;2023-04-24T08:10:24;11.07;;;7.05;;
22064;SDS011;11197;53.110;8.468;2023-04-24T08:12:51;9.77;;;7.27;;
22064;SDS011;11197;53.110;8.468;2023-04-24T08:15:16;10.63;;;8.10;;
22064;SDS011;11197;53.110;8.468;2023-04-24T08:17:43;10.63;;;7.45;;
22064;SDS011;11197;53.110;8.468;2023-04-24T08:20:10;11.07;;;7.65;;
22064;SDS011;11197;53.110;8.468;2023-04-24T08:22:40;11.82;;;8.15;;
22064;SDS011;11197;53.110;8.468;2023-04-24T08:25:06;10.55;;;7.18;;
22064;SDS011;11197;53.110;8.468;2023-04-24T08:27:33;8.98;;;6.97;;
22064;SDS011;11197;53.110;8.468;2023-04-24T08:29:59;10.50;;;7.57;;
22064;SDS011;11197;53.110;8.468;2023-04-24T08:32:25;11.75;;;7.68;;
22064;SDS011;11197;53.110;8.468;2023-04-24T08:34:58;10.95;;;7.85;;
22064;SDS011;11197;53.110;8.468;2023-04-24T08:37:25;10.20;;;7.40;;
22064;SDS011;11197;53.110;8.468;2023-04-24T08:39:52;12.98;;;7.90;;
22064;SDS011;11197;53.110;8.468;2023-04-24T08:42:19;11.52;;;8.02;;
22064;SDS011;11197;53.110;8.468;2023-04-24T08:44:46;13.52;;;7.93;;
22064;SDS011;11197;53.110;8.468;2023-04-24T08:47:13;11.27;;;8.27;;
22064;SDS011;11197;53.110;8.468;2023-04-24T08:49:41;11.20;;;8.13;;
22064;SDS011;11197;53.110;8.468;2023-04-24T08:52:07;12.70;;;8.07;;
22064;SDS011;11197;53.110;8.468;2023-04-24T08:54:34;11.07;;;7.85;;
22064;SDS011;11197;53.110;8.468;2023-04-24T08:57:00;9.80;;;7.32;;
22064;SDS011;11197;53.110;8.468;2023-04-24T08:59:29;10.27;;;7.68;;
22064;SDS011;11197;53.110;8.468;2023-04-24T09:01:55;10.45;;;7.88;;
22064;SDS011;11197;53.110;8.468;2023-04-24T09:04:22;10.48;;;7.72;;
22064;SDS011;11197;53.110;8.468;2023-04-24T09:06:57;10.07;;;7.45;;
22064;SDS011;11197;53.110;8.468;2023-04-24T09:09:24;11.60;;;7.75;;
22064;SDS011;11197;53.110;8.468;2023-04-24T09:11:52;11.43;;;8.18;;
22064;SDS011;11197;53.110;8.468;2023-04-24T09:14:20;10.52;;;7.45;;
22064;SDS011;11197;53.110;8.468;2023-04-24T09:16:48;12.77;;;7.80;;
22064;SDS011;11197;53.110;8.468;2023-04-24T09:19:15;11.63;;;7.65;;
22064;SDS011;11197;53.110;8.468;2023-04-24T09:21:41;11.30;;;7.80;;
22064;SDS011;11197;53.110;8.468;2023-04-24T09:24:15;11.18;;;7.38;;
22064;SDS011;11197;53.110;8.468;2023-04-24T09:26:46;10.60;;;7.80;;
22064;SDS011;11197;53.110;8.468;2023-04-24T09:29:15;11.23;;;7.60;;
22064;SDS011;11197;53.110;8.468;2023-04-24T09:31:43;9.20;;;7.22;;
22064;SDS011;11197;53.110;8.468;2023-04-24T09:34:10;10.75;;;7.78;;
22064;SDS011;11197;53.110;8.468;2023-04-24T09:36:40;10.88;;;8.13;;
22064;SDS011;11197;53.110;8.468;2023-04-24T09:39:08;10.93;;;7.82;;
22064;SDS011;11197;53.110;8.468;2023-04-24T09:41:51;10.73;;;7.93;;
22064;SDS011;11197;53.110;8.468;2023-04-24T09:44:20;12.75;;;7.30;;
22064;SDS011;11197;53.110;8.468;2023-04-24T09:46:50;11.30;;;7.78;;
22064;SDS011;11197;53.110;8.468;2023-04-24T09:49:24;12.50;;;7.85;;
22064;SDS011;11197;53.110;8.468;2023-04-24T09:51:50;8.93;;;7.15;;
22064;SDS011;11197;53.110;8.468;2023-04-24T09:54:20;9.85;;;7.13;;
22064;SDS011;11197;53.110;8.468;2023-04-24T09:56:47;10.23;;;7.47;;
22064;SDS011;11197;53.110;8.468;2023-04-24T09:59:15;9.93;;;6.95;;
22064;SDS011;11197;53.110;8.468;2023-04-24T10:01:41;8.30;;;6.78;;
22064;SDS011;11197;53.110;8.468;2023-04-24T10:04:25;10.77;;;7.82;;
22064;SDS011;11197;53.110;8.468;2023-04-24T10:06:53;11.80;;;8.25;;
22064;SDS011;11197;53.110;8.468;2023-04-24T10:09:24;13.23;;;9.18;;
22064;SDS011;11197;53.110;8.468;2023-04-24T10:11:52;11.80;;;9.25;;
22064;SDS011;11197;53.110;8.468;2023-04-24T10:14:23;12.07;;;9.45;;
22064;SDS011;11197;53.110;8.468;2023-04-24T10:16:53;10.88;;;8.88;;
22064;SDS011;11197;53.110;8.468;2023-04-24T10:19:20;9.57;;;7.75;;
22064;SDS011;11197;53.110;8.468;2023-04-24T10:21:46;9.75;;;7.28;;
22064;SDS011;11197;53.110;8.468;2023-04-24T10:24:13;8.63;;;6.55;;
22064;SDS011;11197;53.110;8.468;2023-04-24T10:26:40;7.80;;;6.75;;
22064;SDS011;11197;53.110;8.468;2023-04-24T10:29:06;7.05;;;6.35;;
22064;SDS011;11197;53.110;8.468;2023-04-24T10:31:35;7.65;;;6.35;;
22064;SDS011;11197;53.110;8.468;2023-04-24T10:36:35;10.52;;;6.03;;
22064;SDS011;11197;53.110;8.468;2023-04-24T10:39:08;8.93;;;6.03;;
22064;SDS011;11197;53.110;8.468;2023-04-24T10:41:38;7.60;;;6.32;;
22064;SDS011;11197;53.110;8.468;2023-04-24T10:44:06;9.48;;;6.90;;
22064;SDS011;11197;53.110;8.468;2023-04-24T10:46:36;7.82;;;6.03;;
22064;SDS011;11197;53.110;8.468;2023-04-24T10:49:04;8.98;;;6.50;;
22064;SDS011;11197;53.110;8.468;2023-04-24T10:51:44;9.13;;;7.28;;
22064;SDS011;11197;53.110;8.468;2023-04-24T10:54:34;10.18;;;7.47;;
22064;SDS011;11197;53.110;8.468;2023-04-24T11:00:10;8.27;;;6.50;;
22064;SDS011;11197;53.110;8.468;2023-04-24T11:02:45;8.57;;;6.32;;
22064;SDS011;11197;53.110;8.468;2023-04-24T11:05:18;8.77;;;6.88;;
22064;SDS011;11197;53.110;8.468;2023-04-24T11:10:54;8.75;;;7.78;;
22064;SDS011;11197;53.110;8.468;2023-04-24T11:14:00;9.02;;;7.60;;
22064;SDS011;11197;53.110;8.468;2023-04-24T11:21:28;7.05;;;5.50;;
22064;SDS011;11197;53.110;8.468;2023-04-24T11:27:13;5.13;;;4.55;;
22064;SDS011;11197;53.110;8.468;2023-04-24T11:34:51;6.35;;;3.60;;
22064;SDS011;11197;53.110;8.468;2023-04-24T11:37:22;3.83;;;3.00;;
22064;SDS011;11197;53.110;8.468;2023-04-24T11:39:56;4.00;;;2.92;;
22064;SDS011;11197;53.110;8.468;2023-04-24T11:42:23;4.15;;;2.50;;
22064;SDS011;11197;53.110;8.468;2023-04-24T11:44:53;5.18;;;2.58;;
22064;SDS011;11197;53.110;8.468;2023-04-24T11:47:28;4.63;;;2.22;;
22064;SDS011;11197;53.110;8.468;2023-04-24T11:49:55;4.15;;;2.35;;
22064;SDS011;11197;53.110;8.468;2023-04-24T11:52:21;3.67;;;2.40;;
22064;SDS011;11197;53.110;8.468;2023-04-24T11:54:48;3.70;;;2.10;;
22064;SDS011;11197;53.110;8.468;2023-04-24T11:57:15;2.80;;;2.20;;
22064;SDS011;11197;53.110;8.468;2023-04-24T11:59:41;3.33;;;2.10;;
22064;SDS011;11197;53.110;8.468;2023-04-24T12:02:07;3.80;;;2.33;;
22064;SDS011;11197;53.110;8.468;2023-04-24T12:04:42;4.85;;;2.70;;
22064;SDS011;11197;53.110;8.468;2023-04-24T12:07:08;4.75;;;2.17;;
22064;SDS011;11197;53.110;8.468;2023-04-24T12:09:44;3.20;;;2.33;;
22064;SDS011;11197;53.110;8.468;2023-04-24T12:12:15;3.60;;;2.75;;
22064;SDS011;11197;53.110;8.468;2023-04-24T12:14:57;5.93;;;2.90;;
22064;SDS011;11197;53.110;8.468;2023-04-24T12:17:24;6.13;;;3.10;;
22064;SDS011;11197;53.110;8.468;2023-04-24T12:19:52;4.82;;;3.10;;
22064;SDS011;11197;53.110;8.468;2023-04-24T12:22:51;4.68;;;2.75;;
22064;SDS011;11197;53.110;8.468;2023-04-24T12:25:22;4.93;;;3.08;;
22064;SDS011;11197;53.110;8.468;2023-04-24T12:28:08;4.10;;;2.50;;
22064;SDS011;11197;53.110;8.468;2023-04-24T12:30:40;5.20;;;3.10;;
22064;SDS011;11197;53.110;8.468;2023-04-24T12:33:16;7.72;;;3.25;;
22064;SDS011;11197;53.110;8.468;2023-04-24T12:35:44;6.15;;;3.63;;
22064;SDS011;11197;53.110;8.468;2023-04-24T12:38:11;8.65;;;4.78;;
22064;SDS011;11197;53.110;8.468;2023-04-24T12:40:38;8.25;;;6.32;;
22064;SDS011;11197;53.110;8.468;2023-04-24T12:43:19;12.23;;;8.88;;
22064;SDS011;11197;53.110;8.468;2023-04-24T12:45:45;14.88;;;11.05;;
22064;SDS011;11197;53.110;8.468;2023-04-24T12:48:12;21.65;;;14.88;;
22064;SDS011;11197;53.110;8.468;2023-04-24T12:50:41;24.60;;;15.43;;
22064;SDS011;11197;53.110;8.468;2023-04-24T12:53:08;19.42;;;13.02;;
22064;SDS011;11197;53.110;8.468;2023-04-24T12:55:34;22.98;;;16.23;;
22064;SDS011;11197;53.110;8.468;2023-04-24T12:58:00;17.05;;;11.05;;
22064;SDS011;11197;53.110;8.468;2023-04-24T13:00:28;12.48;;;9.13;;
22064;SDS011;11197;53.110;8.468;2023-04-24T13:02:54;16.20;;;9.40;;
22064;SDS011;11197;53.110;8.468;2023-04-24T13:05:20;14.95;;;9.18;;
22064;SDS011;11197;53.110;8.468;2023-04-24T13:07:46;11.52;;;7.93;;
22064;SDS011;11197;53.110;8.468;2023-04-24T13:10:11;11.57;;;6.97;;
22064;SDS011;11197;53.110;8.468;2023-04-24T13:12:38;8.57;;;6.50;;
22064;SDS011;11197;53.110;8.468;2023-04-24T13:15:05;10.45;;;7.05;;
22064;SDS011;11197;53.110;8.468;2023-04-24T13:17:32;10.30;;;6.40;;
22064;SDS011;11197;53.110;8.468;2023-04-24T13:19:58;9.27;;;6.55;;
22064;SDS011;11197;53.110;8.468;2023-04-24T13:22:24;10.48;;;6.40;;
22064;SDS011;11197;53.110;8.468;2023-04-24T13:24:50;10.35;;;5.95;;
22064;SDS011;11197;53.110;8.468;2023-04-24T13:27:16;10.82;;;6.57;;
22064;SDS011;11197;53.110;8.468;2023-04-24T13:29:42;10.93;;;6.72;;
22064;SDS011;11197;53.110;8.468;2023-04-24T13:32:09;11.15;;;6.50;;
22064;SDS011;11197;53.110;8.468;2023-04-24T13:34:35;11.52;;;6.50;;
22064;SDS011;11197;53.110;8.468;2023-04-24T13:37:02;14.57;;;6.82;;
22064;SDS011;11197;53.110;8.468;2023-04-24T13:39:28;10.73;;;5.75;;
22064;SDS011;11197;53.110;8.468;2023-04-24T13:41:55;11.38;;;5.80;;
22064;SDS011;11197;53.110;8.468;2023-04-24T13:44:22;11.95;;;5.60;;
22064;SDS011;11197;53.110;8.468;2023-04-24T13:46:49;11.55;;;5.75;;
22064;SDS011;11197;53.110;8.468;2023-04-24T13:49:17;10.85;;;5.32;;
22064;SDS011;11197;53.110;8.468;2023-04-24T13:51:43;9.35;;;4.90;;
22064;SDS011;11197;53.110;8.468;2023-04-24T13:54:10;8.18;;;4.30;;
22064;SDS011;11197;53.110;8.468;2023-04-24T13:56:36;11.65;;;5.05;;
22064;SDS011;11197;53.110;8.468;2023-04-24T13:59:03;9.30;;;4.55;;
22064;SDS011;11197;53.110;8.468;2023-04-24T14:01:30;9.85;;;3.80;;
22064;SDS011;11197;53.110;8.468;2023-04-24T14:03:55;8.27;;;4.38;;
22064;SDS011;11197;53.110;8.468;2023-04-24T14:06:21;11.00;;;4.35;;
22064;SDS011;11197;53.110;8.468;2023-04-24T14:08:48;10.07;;;4.72;;
22064;SDS011;11197;53.110;8.468;2023-04-24T14:11:15;10.80;;;4.90;;
22064;SDS011;11197;53.110;8.468;2023-04-24T14:13:42;9.00;;;4.38;;
22064;SDS011;11197;53.110;8.468;2023-04-24T14:16:08;11.68;;;4.65;;
22064;SDS011;11197;53.110;8.468;2023-04-24T14:18:34;11.07;;;4.57;;
22064;SDS011;11197;53.110;8.468;2023-04-24T14:21:01;10.20;;;4.45;;
22064;SDS011;11197;53.110;8.468;2023-04-24T14:23:28;9.57;;;4.50;;
22064;SDS011;11197;53.110;8.468;2023-04-24T14:25:54;9.57;;;4.15;;
22064;SDS011;11197;53.110;8.468;2023-04-24T14:28:20;9.10;;;3.72;;
22064;SDS011;11197;53.110;8.468;2023-04-24T14:30:49;7.00;;;3.70;;
22064;SDS011;11197;53.110;8.468;2023-04-24T14:33:15;10.30;;;3.85;;
22064;SDS011;11197;53.110;8.468;2023-04-24T14:35:41;7.68;;;3.85;;
22064;SDS011;11197;53.110;8.468;2023-04-24T14:38:08;10.38;;;4.22;;
22064;SDS011;11197;53.110;8.468;2023-04-24T14:40:34;8.85;;;4.53;;
22064;SDS011;11197;53.110;8.468;2023-04-24T14:43:00;8.32;;;4.60;;
22064;SDS011;11197;53.110;8.468;2023-04-24T14:45:26;9.32;;;4.50;;
22064;SDS011;11197;53.110;8.468;2023-04-24T14:47:52;8.77;;;4.30;;
22064;SDS011;11197;53.110;8.468;2023-04-24T14:50:18;10.20;;;4.18;;
22064;SDS011;11197;53.110;8.468;2023-04-24T14:52:44;8.63;;;3.70;;
22064;SDS011;11197;53.110;8.468;2023-04-24T14:55:11;7.20;;;2.80;;
22064;SDS011;11197;53.110;8.468;2023-04-24T14:57:37;9.40;;;3.20;;
22064;SDS011;11197;53.110;8.468;2023-04-24T15:00:07;6.75;;;2.70;;
22064;SDS011;11197;53.110;8.468;2023-04-24T15:02:35;7.47;;;2.80;;
22064;SDS011;11197;53.110;8.468;2023-04-24T15:05:05;8.50;;;3.13;;
22064;SDS011;11197;53.110;8.468;2023-04-24T15:07:31;8.82;;;3.00;;
22064;SDS011;11197;53.110;8.468;2023-04-24T15:09:58;6.68;;;2.80;;
22064;SDS011;11197;53.110;8.468;2023-04-24T15:12:24;7.80;;;2.83;;